Terminal Aerodrome Forecast
Issued by NWS

Home | Current Version | Previous Version | Text Only | Print | Product List | Glossary Off
Versions: 1 2 3 4 5 6 7 8 9 10 11 12 13 14 15 16 17 18 19 20 21 22 23

000
FTUS43 KICT 152300
TAFRSL
TAF
KRSL 152322Z 1600/1624 05009KT P6SM SCT040
     FM160600 10005KT P6SM SKC
     FM161200 17010KT P6SM SCT030
      TEMPO 1612/1615 BKN025=

USA.gov is the U.S. government's official web portal to all federal, state and local government web resources and services.